Baie-Comeau, Canada
Current Conditions -  °F | °C
As of 12:00 PM on Thursday 30 Oct 2014 (Local Time) from CYBC Reporting Station
Overcast Overcast  
Wind Chill: 41°   Ceiling: 5500
Heat Index: 46°   Visibility: 9mi
Dew Point: 30°   Wind: 12mph
Humidity: 53%   Direction: 290°WNW
Pressure: 29.76"   Gusts: 17mph
Location:  49.22°N, 68.15°W
Report Text: CYBC 301600Z AUTO 29010G15KT 9SM SCT045 OVC055 08/M01 A2976 RMK SLP077
Loading
Personal Weather Stations






























Interactive Weather Map New forecast layout! Learn more

10-Day Weather Forecast

Advertisements
Track Severe Weather on mobile